Time;durP1;ratioP1;P1;durP2;ratioP2;P2;SDS_P1;SDS_P2;PMS_P1;PMS_P2;Temp;Humidity;BMP_temperature;BMP_pressure;BME280_temperature;BME280_humidity;BME280_pressure;Samples;Min_cycle;Max_cycle;Signal;HPM_P1;HPM_P2
2022/11/23 00:01:23;;;;;;;15.83;10.10;;;;;;;41.57;36.31;100954.72;5032761;28;20459;-72
2022/11/23 00:03:53;;;;;;;13.80;9.80;;;;;;;41.85;36.21;100951.50;5031207;28;20524;-72
2022/11/23 00:06:21;;;;;;;17.90;11.50;;;;;;;41.42;36.44;100951.75;5031041;28;20424;-72
2022/11/23 00:08:47;;;;;;;12.57;9.70;;;;;;;41.26;36.78;100943.31;5023153;28;20478;-72
2022/11/23 00:11:13;;;;;;;16.73;11.93;;;;;;;41.76;36.04;100948.06;5021132;28;20518;-72
2022/11/23 00:13:40;;;;;;;23.03;9.80;;;;;;;41.71;36.46;100956.38;5012179;28;20476;-72
2022/11/23 00:16:17;;;;;;;19.30;9.30;;;;;;;41.51;36.45;100953.31;5028119;28;20447;-72
2022/11/23 00:18:43;;;;;;;15.40;8.83;;;;;;;41.66;36.13;100957.38;5029978;28;20419;-72
2022/11/23 00:21:12;;;;;;;18.70;10.80;;;;;;;41.62;36.58;100956.44;5013339;28;20436;-72
2022/11/23 00:23:38;;;;;;;39.00;12.67;;;;;;;41.54;36.35;100954.56;5016247;28;20428;-72
2022/11/23 00:26:05;;;;;;;17.90;10.93;;;;;;;41.73;36.10;100957.63;5015047;28;20439;-74
2022/11/23 00:28:31;;;;;;;22.40;11.00;;;;;;;41.50;36.64;100956.34;5032442;28;20459;-74
2022/11/23 00:30:57;;;;;;;16.90;10.07;;;;;;;41.73;36.47;100948.66;5035003;28;20827;-74
2022/11/23 00:33:23;;;;;;;19.43;12.43;;;;;;;41.92;35.78;100948.25;5035008;28;20419;-74
2022/11/23 00:36:14;;;;;;;17.10;10.70;;;;;;;41.84;36.43;100942.53;5035015;28;21001;-74
2022/11/23 00:38:41;;;;;;;22.43;9.67;;;;;;;41.71;36.00;100943.56;5035008;28;20423;-74
2022/11/23 00:41:13;;;;;;;17.00;12.67;;;;;;;41.74;36.20;100936.63;5034939;28;20416;-74
2022/11/23 00:43:40;;;;;;;21.33;11.03;;;;;;;41.71;36.04;100940.84;5034871;28;20415;-74
2022/11/23 00:46:15;;;;;;;22.57;13.53;;;;;;;41.51;36.78;100938.88;5034656;28;20419;-74
2022/11/23 00:48:45;;;;;;;15.37;9.73;;;;;;;41.27;36.69;100942.19;5034442;28;20520;-75
2022/11/23 00:51:14;;;;;;;23.67;11.40;;;;;;;41.28;36.40;100928.25;5034635;28;20419;-73
2022/11/23 00:53:40;;;;;;;23.30;11.50;;;;;;;41.32;36.80;100936.56;5034613;28;20916;-72
2022/11/23 00:56:06;;;;;;;18.20;11.63;;;;;;;41.08;36.78;100937.16;5030564;28;20439;-72
2022/11/23 00:58:32;;;;;;;16.13;9.23;;;;;;;41.48;36.44;100945.78;5034435;28;20423;-71
2022/11/23 01:01:11;;;;;;;20.93;10.90;;;;;;;41.36;36.30;100926.63;5033786;28;20447;-72
2022/11/23 01:03:42;;;;;;;14.60;9.93;;;;;;;41.51;36.25;100928.00;5026615;28;20451;-73
2022/11/23 01:06:12;;;;;;;22.20;10.13;;;;;;;41.43;36.50;100926.09;5020326;28;20801;-74
2022/11/23 01:08:38;;;;;;;16.73;10.40;;;;;;;41.46;36.19;100920.81;5033485;28;20494;-74
2022/11/23 01:11:07;;;;;;;16.20;11.40;;;;;;;41.49;36.70;100919.34;5033404;28;20477;-72
2022/11/23 01:13:34;;;;;;;21.93;10.47;;;;;;;41.47;36.56;100911.50;5020664;28;20942;-74
2022/11/23 01:16:00;;;;;;;16.13;9.63;;;;;;;41.56;36.44;100916.91;5018774;28;20586;-72
2022/11/23 01:18:26;;;;;;;20.30;12.30;;;;;;;41.69;36.10;100906.91;5025476;28;20455;-72
2022/11/23 01:20:52;;;;;;;15.87;10.13;;;;;;;41.90;36.20;100909.66;5033510;28;20439;-74
2022/11/23 01:23:18;;;;;;;13.07;11.07;;;;;;;41.85;35.82;100905.97;5031241;28;20188;-74
2022/11/23 01:25:44;;;;;;;28.03;12.37;;;;;;;41.57;36.67;100899.44;5029424;28;20451;-74
2022/11/23 01:28:10;;;;;;;19.00;10.23;;;;;;;41.19;37.32;100894.00;5022764;28;20494;-73
2022/11/23 01:30:36;;;;;;;15.27;11.20;;;;;;;41.36;37.00;100885.78;5034169;28;20490;-74
2022/11/23 01:33:03;;;;;;;21.80;11.30;;;;;;;41.64;36.96;100883.38;5023621;28;20944;-72
2022/11/23 01:35:29;;;;;;;15.30;10.60;;;;;;;41.58;36.88;100879.25;5013440;28;20420;-72
2022/11/23 01:37:55;;;;;;;22.93;10.30;;;;;;;41.24;37.43;100875.56;5027722;28;20438;-74
2022/11/23 01:40:21;;;;;;;34.80;10.43;;;;;;;41.46;37.03;100882.69;5033765;28;20415;-74
2022/11/23 01:42:56;;;;;;;20.50;10.63;;;;;;;41.65;36.39;100876.78;5033745;28;20924;-74
2022/11/23 01:45:40;;;;;;;20.60;10.50;;;;;;;41.48;36.36;100874.19;5022032;28;20431;-75
2022/11/23 01:48:16;;;;;;;21.50;11.23;;;;;;;41.53;36.07;100860.38;5013803;28;20999;-74
2022/11/23 01:50:45;;;;;;;22.83;11.23;;;;;;;41.78;35.78;100870.31;5013711;28;20951;-74
2022/11/23 01:53:11;;;;;;;18.47;9.90;;;;;;;41.93;35.41;100868.09;5014060;28;20424;-75
2022/11/23 01:55:38;;;;;;;21.90;10.77;;;;;;;41.84;35.55;100860.81;5034432;28;20430;-73
2022/11/23 01:58:08;;;;;;;15.00;9.80;;;;;;;41.42;36.37;100859.16;5032486;28;20483;-71
2022/11/23 02:00:33;;;;;;;20.67;12.27;;;;;;;41.50;36.34;100850.97;5023324;28;20968;-72
2022/11/23 02:03:03;;;;;;;20.07;10.83;;;;;;;41.71;35.92;100855.59;5029755;28;20447;-72
2022/11/23 02:05:41;;;;;;;16.03;10.77;;;;;;;41.37;36.57;100843.03;5032754;28;20189;-72
2022/11/23 02:08:08;;;;;;;16.73;11.80;;;;;;;41.45;36.27;100834.81;5031054;28;20459;-72
2022/11/23 02:10:35;;;;;;;20.23;11.30;;;;;;;41.39;36.40;100836.13;5029181;28;20448;-72
2022/11/23 02:13:06;;;;;;;17.03;11.03;;;;;;;41.20;36.74;100825.66;5028464;28;20840;-72
2022/11/23 02:15:33;;;;;;;21.27;9.47;;;;;;;41.52;36.02;100820.66;5032380;28;20443;-72
2022/11/23 02:18:03;;;;;;;15.03;10.10;;;;;;;41.16;36.46;100824.72;5031308;28;20443;-72
2022/11/23 02:20:29;;;;;;;13.70;9.40;;;;;;;41.54;36.04;100832.00;5032363;28;20526;-73
2022/11/23 02:23:14;;;;;;;15.30;9.73;;;;;;;41.32;36.35;100814.88;5031432;28;20443;-72
2022/11/23 02:25:57;;;;;;;22.40;10.87;;;;;;;41.54;36.00;100799.34;5024822;28;20448;-72
2022/11/23 02:28:28;;;;;;;14.43;9.30;;;;;;;41.41;35.58;100825.72;5029813;28;20454;-72
2022/11/23 02:30:54;;;;;;;15.87;9.20;;;;;;;41.42;35.58;100810.97;5032228;28;20494;-74
2022/11/23 02:33:21;;;;;;;19.03;11.43;;;;;;;41.01;36.35;100804.34;5026734;28;20971;-73
2022/11/23 02:35:52;;;;;;;12.77;10.40;;;;;;;41.25;35.69;100809.16;5031313;28;20447;-72
2022/11/23 02:38:18;;;;;;;20.40;9.87;;;;;;;41.12;36.63;100798.50;5030942;28;20447;-74
2022/11/23 02:40:44;;;;;;;16.27;10.30;;;;;;;41.15;36.38;100806.00;5030157;28;20479;-73
2022/11/23 02:43:11;;;;;;;15.67;10.10;;;;;;;41.17;36.82;100804.53;5027136;28;20498;-72
2022/11/23 02:45:47;;;;;;;31.80;12.90;;;;;;;41.25;36.94;100800.16;5024586;28;20824;-74
2022/11/23 02:48:13;;;;;;;19.10;10.67;;;;;;;41.37;36.77;100794.03;5031005;28;20536;-74
2022/11/23 02:50:39;;;;;;;15.40;11.23;;;;;;;41.25;37.23;100800.97;5027183;28;20882;-75
2022/11/23 02:53:05;;;;;;;14.27;10.97;;;;;;;41.28;37.25;100811.19;5012750;28;20185;-74
2022/11/23 02:55:31;;;;;;;15.33;11.40;;;;;;;41.53;36.68;100805.91;5019773;28;20439;-72
2022/11/23 02:57:57;;;;;;;17.60;8.93;;;;;;;41.57;36.98;100804.13;5031441;28;20448;-71
2022/11/23 03:00:23;;;;;;;21.47;10.90;;;;;;;41.54;36.48;100807.50;5031659;28;20451;-72
2022/11/23 03:02:49;;;;;;;16.10;10.60;;;;;;;41.55;36.13;100799.00;5025881;28;20700;-72
2022/11/23 03:05:15;;;;;;;20.63;11.73;;;;;;;41.10;37.17;100801.56;5031538;28;20262;-74
2022/11/23 03:07:41;;;;;;;19.23;10.93;;;;;;;41.38;36.94;100799.16;5032094;28;20892;-75
2022/11/23 03:10:07;;;;;;;28.10;10.97;;;;;;;41.48;36.85;100809.63;5030414;28;21059;-73
2022/11/23 03:12:33;;;;;;;15.27;9.73;;;;;;;41.10;36.77;100807.00;5027745;28;20237;-72
2022/11/23 03:14:59;;;;;;;20.40;12.20;;;;;;;41.38;36.77;100814.69;5015674;28;20477;-72
2022/11/23 03:17:26;;;;;;;18.83;11.73;;;;;;;41.19;36.68;100802.31;5032064;28;20172;-73
2022/11/23 03:19:53;;;;;;;17.90;11.50;;;;;;;41.21;36.15;100815.56;5031200;28;20468;-73
2022/11/23 03:22:19;;;;;;;21.13;11.53;;;;;;;41.27;36.16;100808.81;5031465;28;20979;-73
2022/11/23 03:24:44;;;;;;;22.00;9.77;;;;;;;41.22;36.27;100815.25;5044238;28;20436;-72
2022/11/23 03:27:11;;;;;;;23.03;12.00;;;;;;;41.18;36.58;100808.84;5028375;28;20455;-72
2022/11/23 03:29:37;;;;;;;24.77;12.37;;;;;;;41.23;36.66;100811.38;5026768;28;20443;-72
2022/11/23 03:32:03;;;;;;;23.37;12.63;;;;;;;41.33;35.89;100802.88;5028116;28;20462;-73
2022/11/23 03:34:29;;;;;;;22.30;14.00;;;;;;;41.21;36.38;100801.97;5026473;28;20192;-72
2022/11/23 03:36:55;;;;;;;14.70;10.87;;;;;;;41.27;36.25;100801.44;5030931;28;20450;-75
2022/11/23 03:39:21;;;;;;;18.60;10.60;;;;;;;41.49;36.11;100800.31;5033047;28;20547;-71
2022/11/23 03:41:47;;;;;;;17.63;10.67;;;;;;;41.47;35.74;100801.81;5029559;28;21019;-74
2022/11/23 03:44:12;;;;;;;21.43;11.40;;;;;;;41.30;36.20;100808.13;5031186;28;20979;-72
2022/11/23 03:46:38;;;;;;;22.03;12.20;;;;;;;41.11;36.47;100805.84;5015720;28;20487;-72
2022/11/23 03:49:04;;;;;;;19.23;11.00;;;;;;;41.20;36.52;100809.34;5026327;28;20196;-72
2022/11/23 03:51:30;;;;;;;16.67;10.90;;;;;;;41.24;36.27;100810.25;5025032;28;20184;-74
2022/11/23 03:53:56;;;;;;;18.90;11.27;;;;;;;41.42;36.39;100818.34;5031291;28;20191;-74
2022/11/23 03:56:22;;;;;;;19.93;11.43;;;;;;;41.16;36.90;100813.84;5016753;28;20185;-74
2022/11/23 03:58:48;;;;;;;15.40;11.07;;;;;;;41.10;36.86;100804.28;5017312;28;20231;-72
2022/11/23 04:01:14;;;;;;;18.20;13.13;;;;;;;41.18;36.66;100800.69;5029073;28;20608;-73
2022/11/23 04:03:40;;;;;;;23.00;12.53;;;;;;;41.16;36.69;100794.00;5030687;28;20959;-73
2022/11/23 04:06:06;;;;;;;20.50;12.10;;;;;;;40.90;37.01;100800.41;5029449;28;20497;-72
2022/11/23 04:08:31;;;;;;;17.77;11.70;;;;;;;40.83;37.59;100799.28;5026620;28;20290;-72
2022/11/23 04:10:58;;;;;;;21.53;11.33;;;;;;;41.07;36.96;100804.94;5020474;28;20460;-75
2022/11/23 04:13:25;;;;;;;15.13;9.43;;;;;;;40.98;36.99;100802.25;5017182;28;20468;-72
2022/11/23 04:15:51;;;;;;;21.30;11.77;;;;;;;40.78;37.11;100809.22;5029572;28;20449;-74
2022/11/23 04:18:17;;;;;;;18.73;11.60;;;;;;;41.07;36.65;100805.75;5027013;28;20985;-74
2022/11/23 04:20:43;;;;;;;22.90;11.97;;;;;;;41.28;36.21;100811.19;5029306;28;20534;-73
2022/11/23 04:23:09;;;;;;;16.87;11.57;;;;;;;41.17;36.56;100815.44;5030262;28;20189;-74
2022/11/23 04:25:35;;;;;;;17.13;10.63;;;;;;;41.34;36.42;100809.09;5023313;28;20439;-72
2022/11/23 04:28:01;;;;;;;19.77;11.83;;;;;;;41.59;35.73;100816.28;5025444;28;20212;-72
2022/11/23 04:30:26;;;;;;;16.80;12.07;;;;;;;41.35;35.76;100816.13;5028164;28;20200;-72
2022/11/23 04:32:52;;;;;;;20.23;12.93;;;;;;;41.21;36.27;100810.13;5030169;28;20664;-74
2022/11/23 04:35:18;;;;;;;20.83;11.60;;;;;;;41.14;36.29;100807.94;5025319;28;20192;-71
2022/11/23 04:37:44;;;;;;;17.63;10.40;;;;;;;41.10;36.37;100817.09;5028715;28;20177;-72
2022/11/23 04:40:11;;;;;;;13.37;10.23;;;;;;;41.11;36.20;100816.75;5029570;28;20497;-74
2022/11/23 04:42:36;;;;;;;17.57;10.00;;;;;;;41.34;36.07;100834.41;5027993;28;20189;-71
2022/11/23 04:45:03;;;;;;;13.00;10.87;;;;;;;41.43;35.68;100834.34;5030835;28;20526;-72
2022/11/23 04:47:28;;;;;;;15.27;10.67;;;;;;;41.71;34.93;100834.59;5021887;28;20642;-72
2022/11/23 04:49:54;;;;;;;17.50;11.20;;;;;;;41.74;35.10;100842.16;5015730;28;20967;-73
2022/11/23 04:52:20;;;;;;;19.30;13.17;;;;;;;41.47;35.52;100846.16;5030989;28;20223;-74
2022/11/23 04:54:46;;;;;;;23.53;12.50;;;;;;;41.72;35.35;100847.09;5028443;28;20220;-73
2022/11/23 04:57:12;;;;;;;22.00;11.40;;;;;;;41.39;36.39;100851.69;5017435;28;20452;-73
2022/11/23 04:59:38;;;;;;;21.00;13.10;;;;;;;41.52;35.99;100862.31;5027018;28;20196;-73
2022/11/23 05:02:04;;;;;;;24.80;15.40;;;;;;;41.52;36.22;100859.59;5028562;28;21040;-72
2022/11/23 05:04:30;;;;;;;18.73;14.50;;;;;;;41.73;36.00;100866.94;5024337;28;20189;-74
2022/11/23 05:06:56;;;;;;;22.37;15.57;;;;;;;41.55;36.18;100866.28;5023899;28;20439;-72
2022/11/23 05:09:22;;;;;;;20.07;16.30;;;;;;;41.61;36.32;100863.03;5030164;28;20434;-72
2022/11/23 05:11:48;;;;;;;25.93;17.10;;;;;;;41.63;36.04;100870.88;5016096;28;20460;-74
2022/11/23 05:14:14;;;;;;;25.53;19.03;;;;;;;41.53;36.57;100880.25;5035839;28;20420;-74
2022/11/23 05:16:40;;;;;;;64.60;43.97;;;;;;;41.33;36.76;100886.47;5018006;28;20443;-70
2022/11/23 05:19:06;;;;;;;49.10;35.53;;;;;;;41.47;36.57;100894.38;5014129;28;20458;-74
2022/11/23 05:21:32;;;;;;;39.63;24.80;;;;;;;41.09;37.07;100892.47;4998131;28;20567;-73
2022/11/23 05:23:58;;;;;;;28.10;21.20;;;;;;;41.38;36.63;100899.09;5017522;28;20419;-74
2022/11/23 05:26:24;;;;;;;29.93;21.70;;;;;;;41.46;36.41;100903.69;5035503;28;20432;-74
2022/11/23 05:28:50;;;;;;;31.10;22.37;;;;;;;41.24;36.73;100902.78;5017516;28;20291;-74
2022/11/23 05:31:16;;;;;;;25.33;21.23;;;;;;;41.15;36.69;100907.50;5035534;28;20404;-75
2022/11/23 05:33:42;;;;;;;29.73;23.00;;;;;;;41.22;37.27;100905.06;5018303;28;20839;-74
2022/11/23 05:36:08;;;;;;;37.00;22.93;;;;;;;41.36;36.96;100895.88;5016933;28;20458;-72
2022/11/23 05:38:34;;;;;;;40.70;27.47;;;;;;;40.41;38.25;100892.31;5017289;28;20963;-72
2022/11/23 05:41:00;;;;;;;40.50;22.60;;;;;;;39.90;39.42;100888.50;5017287;28;20425;-72
2022/11/23 05:43:26;;;;;;;30.73;22.20;;;;;;;39.89;39.54;100905.09;5017843;28;20415;-72
2022/11/23 05:45:52;;;;;;;30.30;21.77;;;;;;;40.07;39.59;100895.88;5016676;28;20442;-72
2022/11/23 05:48:18;;;;;;;29.17;23.00;;;;;;;39.85;39.90;100902.25;5033301;28;20872;-72
2022/11/23 05:50:44;;;;;;;42.80;23.93;;;;;;;39.41;40.50;100904.06;5013050;28;20189;-73
2022/11/23 05:53:10;;;;;;;29.60;22.07;;;;;;;40.01;39.42;100907.97;4997653;28;20192;-74
2022/11/23 05:55:36;;;;;;;27.40;19.00;;;;;;;40.38;39.01;100908.47;4997638;28;20507;-73
2022/11/23 05:58:02;;;;;;;30.50;21.80;;;;;;;40.22;39.20;100911.69;5000386;28;20697;-73
2022/11/23 06:00:28;;;;;;;34.27;21.73;;;;;;;40.08;38.96;100910.25;5012401;28;20863;-73
2022/11/23 06:03:00;;;;;;;28.37;22.20;;;;;;;40.38;38.68;100916.63;5028067;28;20949;-73
2022/11/23 06:05:26;;;;;;;35.57;23.67;;;;;;;39.27;40.26;100908.00;5010181;28;20443;-73
2022/11/23 06:07:52;;;;;;;39.70;25.93;;;;;;;39.42;40.29;100904.84;5015981;28;20459;-73
2022/11/23 06:10:18;;;;;;;28.30;22.93;;;;;;;39.01;41.35;100894.31;5012168;28;20443;-74
2022/11/23 06:12:44;;;;;;;35.10;21.17;;;;;;;39.09;41.10;100878.03;5018899;28;20566;-72
2022/11/23 06:15:11;;;;;;;30.20;25.43;;;;;;;39.30;40.68;100880.25;5032428;28;20894;-74
2022/11/23 06:17:37;;;;;;;34.80;23.50;;;;;;;39.88;39.75;100885.28;5026783;28;20435;-74
2022/11/23 06:20:07;;;;;;;26.77;19.80;;;;;;;39.80;39.98;100880.66;5031297;28;20947;-72
2022/11/23 06:22:33;;;;;;;29.07;22.27;;;;;;;39.85;40.10;100872.38;5029345;28;20809;-74
2022/11/23 06:25:00;;;;;;;34.40;21.23;;;;;;;40.40;38.75;100876.34;5029943;28;20478;-74
2022/11/23 06:27:26;;;;;;;35.90;24.50;;;;;;;40.59;37.82;100887.69;5019475;28;20456;-74
2022/11/23 06:29:52;;;;;;;29.53;19.13;;;;;;;40.64;37.40;100887.50;5023573;28;20452;-72
2022/11/23 06:32:18;;;;;;;25.80;19.60;;;;;;;39.59;37.78;100893.22;5031018;28;20439;-74
2022/11/23 06:34:44;;;;;;;21.97;17.80;;;;;;;40.31;36.34;100897.28;5026400;28;20440;-74
2022/11/23 06:37:10;;;;;;;24.03;17.57;;;;;;;39.45;37.54;100921.28;5023734;28;20442;-74
2022/11/23 06:39:36;;;;;;;24.10;17.80;;;;;;;40.00;36.28;100923.47;5016424;28;20448;-72
2022/11/23 06:42:02;;;;;;;34.77;20.70;;;;;;;39.43;36.74;100941.72;5028171;28;20501;-72
2022/11/23 06:44:28;;;;;;;20.50;16.67;;;;;;;37.88;38.77;100944.97;5032629;28;20203;-74
2022/11/23 06:46:54;;;;;;;33.73;14.93;;;;;;;37.69;39.11;100969.41;5031972;28;20527;-74
2022/11/23 06:49:20;;;;;;;25.00;17.33;;;;;;;37.38;39.59;100959.19;5030349;28;20223;-72
2022/11/23 06:51:46;;;;;;;18.77;15.40;;;;;;;38.09;38.24;100961.56;5031228;28;20970;-71
2022/11/23 06:54:12;;;;;;;18.37;11.70;;;;;;;38.34;37.43;100963.72;5035998;28;20442;-72
2022/11/23 06:56:38;;;;;;;19.67;12.80;;;;;;;38.56;36.74;100954.81;5026226;28;20436;-74
2022/11/23 06:59:04;;;;;;;18.20;14.23;;;;;;;39.13;35.72;100960.41;5012357;28;20288;-72
2022/11/23 07:01:31;;;;;;;15.93;11.83;;;;;;;39.39;35.13;100976.03;5028361;28;20443;-73
2022/11/23 07:03:57;;;;;;;15.13;11.77;;;;;;;39.61;34.63;100970.56;5016416;28;20303;-72
2022/11/23 07:06:23;;;;;;;23.50;15.40;;;;;;;39.61;34.14;100967.84;5022340;28;20415;-72
2022/11/23 07:08:49;;;;;;;27.63;15.30;;;;;;;39.97;33.45;100969.53;5023891;28;20292;-73
2022/11/23 07:11:15;;;;;;;30.33;17.97;;;;;;;40.09;33.80;100969.72;5021038;28;20454;-74
2022/11/23 07:13:40;;;;;;;22.80;13.87;;;;;;;39.94;33.48;100970.16;5020441;28;20842;-71
2022/11/23 07:16:07;;;;;;;17.73;12.30;;;;;;;39.91;33.83;100987.09;5020524;28;20215;-71
2022/11/23 07:18:33;;;;;;;16.17;13.00;;;;;;;39.87;33.68;100983.41;5022490;28;20505;-71
2022/11/23 07:20:59;;;;;;;30.50;16.47;;;;;;;39.21;34.76;100994.16;5037194;28;20435;-72
2022/11/23 07:23:25;;;;;;;26.93;17.40;;;;;;;39.89;33.84;100989.31;5021608;28;20790;-71
2022/11/23 07:25:51;;;;;;;21.40;16.40;;;;;;;39.95;34.40;100998.91;5033287;28;20451;-71
2022/11/23 07:28:19;;;;;;;17.90;13.27;;;;;;;40.09;33.28;101005.03;5031225;28;21054;-71
2022/11/23 07:30:45;;;;;;;25.10;14.23;;;;;;;40.38;33.02;101011.75;5020114;28;20515;-73
2022/11/23 07:33:12;;;;;;;19.70;14.43;;;;;;;40.71;32.92;101020.28;5019285;28;20181;-71
2022/11/23 07:35:39;;;;;;;27.73;16.80;;;;;;;40.55;32.61;101025.38;5032518;28;20180;-71
2022/11/23 07:38:09;;;;;;;26.70;19.10;;;;;;;40.11;33.78;101037.31;5017883;28;21026;-71
2022/11/23 07:40:38;;;;;;;29.70;17.93;;;;;;;40.31;33.64;101031.25;5011853;28;20431;-73
2022/11/23 07:43:05;;;;;;;23.80;18.53;;;;;;;40.10;33.72;101033.81;4995739;28;20484;-71
2022/11/23 07:45:33;;;;;;;18.97;14.63;;;;;;;40.23;33.13;101042.94;5026183;28;20463;-72
2022/11/23 07:48:01;;;;;;;26.47;17.33;;;;;;;40.42;33.35;101035.28;5023721;28;20467;-71
2022/11/23 07:50:27;;;;;;;28.90;17.73;;;;;;;40.47;33.05;101039.75;5028102;28;20452;-73
2022/11/23 07:52:53;;;;;;;31.20;22.60;;;;;;;40.67;32.58;101050.00;5028901;28;20439;-73
2022/11/23 07:55:19;;;;;;;34.57;21.70;;;;;;;40.83;32.87;101046.81;5025892;28;20439;-72
2022/11/23 07:57:45;;;;;;;37.97;22.70;;;;;;;40.48;33.14;101049.53;5028986;28;20431;-71
2022/11/23 08:00:12;;;;;;;38.80;22.10;;;;;;;40.93;32.93;101054.66;5022393;28;20456;-72
2022/11/23 08:02:38;;;;;;;34.90;20.20;;;;;;;41.10;32.43;101068.22;5031330;28;20447;-73
2022/11/23 08:05:05;;;;;;;44.60;24.13;;;;;;;40.83;32.22;101057.69;5032070;28;20403;-74
2022/11/23 08:07:31;;;;;;;40.47;21.33;;;;;;;40.57;33.42;101069.38;5025553;28;20477;-71
2022/11/23 08:09:57;;;;;;;39.17;25.03;;;;;;;39.74;33.70;101063.88;5022609;28;20542;-72
2022/11/23 08:12:23;;;;;;;37.87;26.50;;;;;;;39.82;33.90;101062.31;5020407;28;20479;-71
2022/11/23 08:14:48;;;;;;;50.80;39.13;;;;;;;39.74;34.01;101061.97;5023629;28;20283;-70
2022/11/23 08:17:14;;;;;;;41.63;27.30;;;;;;;39.21;34.74;101073.63;5024793;28;20429;-69
2022/11/23 08:19:40;;;;;;;49.90;32.93;;;;;;;39.21;35.27;101065.50;5024170;28;20427;-73
2022/11/23 08:22:06;;;;;;;33.27;24.73;;;;;;;39.05;34.61;101069.69;5023260;28;20265;-69
2022/11/23 08:24:32;;;;;;;29.50;20.23;;;;;;;39.60;33.68;101069.44;5020591;28;20181;-75
2022/11/23 08:26:58;;;;;;;26.87;20.00;;;;;;;39.26;34.53;101061.88;5022234;28;20560;-70
2022/11/23 08:29:24;;;;;;;23.20;18.03;;;;;;;39.87;33.88;101054.81;5019047;28;20436;-72
2022/11/23 08:31:51;;;;;;;28.30;19.30;;;;;;;40.27;33.22;101046.63;5022288;28;20474;-71
2022/11/23 08:34:18;;;;;;;33.73;24.80;;;;;;;40.04;33.18;101051.38;5030060;28;20273;-72
2022/11/23 08:36:44;;;;;;;30.13;24.60;;;;;;;40.17;33.04;101045.00;5029919;28;20442;-71
2022/11/23 08:39:11;;;;;;;29.43;22.33;;;;;;;38.76;35.12;101042.19;5031403;28;20410;-72
2022/11/23 08:41:37;;;;;;;34.60;19.80;;;;;;;39.00;34.52;101041.91;5029930;28;20818;-73
2022/11/23 08:44:04;;;;;;;32.50;20.90;;;;;;;39.45;33.16;101031.78;5030823;28;20431;-73
2022/11/23 08:46:30;;;;;;;24.70;15.60;;;;;;;39.56;32.57;101030.41;5034547;28;20955;-74
2022/11/23 08:48:56;;;;;;;21.20;15.40;;;;;;;40.34;30.88;101022.50;5031296;28;20463;-73
2022/11/23 08:51:22;;;;;;;25.80;17.40;;;;;;;40.29;30.96;101019.94;5022616;28;20938;-73
2022/11/23 08:53:50;;;;;;;24.07;17.10;;;;;;;40.62;30.13;101017.53;5032241;28;20453;-73
2022/11/23 08:56:17;;;;;;;22.70;15.13;;;;;;;40.94;30.31;101020.88;5030317;28;21561;-73
2022/11/23 08:58:43;;;;;;;26.30;16.37;;;;;;;40.88;30.57;101027.59;5030480;28;20441;-72
2022/11/23 09:01:11;;;;;;;23.80;15.80;;;;;;;40.99;29.76;101028.88;5034046;28;20403;-74
2022/11/23 09:03:37;;;;;;;28.43;17.10;;;;;;;40.33;30.97;101028.22;5033059;28;20412;-75
2022/11/23 09:06:03;;;;;;;20.80;14.47;;;;;;;40.84;30.17;101023.94;5027093;28;20451;-71
2022/11/23 09:08:29;;;;;;;24.10;15.00;;;;;;;40.99;29.51;101023.44;5031854;28;20456;-73
2022/11/23 09:11:04;;;;;;;21.57;13.20;;;;;;;41.14;29.25;101022.94;5032945;28;20420;-74
2022/11/23 09:13:30;;;;;;;22.43;16.07;;;;;;;41.33;29.23;101034.25;5030512;28;20553;-77
2022/11/23 09:15:58;;;;;;;25.50;16.77;;;;;;;41.41;29.16;101031.81;5032920;28;20530;-74
2022/11/23 09:18:25;;;;;;;26.23;15.47;;;;;;;41.52;29.25;101028.41;5033576;28;20415;-72
2022/11/23 09:20:51;;;;;;;20.30;14.63;;;;;;;41.64;28.54;101030.44;5033105;28;20451;-73
2022/11/23 09:23:17;;;;;;;20.60;15.20;;;;;;;41.25;29.17;101029.63;5028907;28;20439;-72
2022/11/23 09:25:47;;;;;;;30.70;15.80;;;;;;;41.33;29.52;101025.28;5033232;28;20447;-73
2022/11/23 09:28:13;;;;;;;26.07;18.23;;;;;;;41.60;29.24;101024.03;5015789;28;20857;-76
2022/11/23 09:30:40;;;;;;;24.37;15.10;;;;;;;41.69;29.30;101033.00;5032901;28;20420;-71
2022/11/23 09:33:07;;;;;;;25.60;17.67;;;;;;;41.48;29.19;101026.66;5030199;28;20442;-72
2022/11/23 09:35:34;;;;;;;36.80;19.10;;;;;;;41.33;29.60;101025.28;5035510;28;20400;-74
2022/11/23 09:38:00;;;;;;;27.33;19.70;;;;;;;40.78;30.42;101020.56;5017110;28;20478;-72
2022/11/23 09:40:33;;;;;;;23.30;17.63;;;;;;;41.48;29.55;101027.47;5033833;28;20470;-72
2022/11/23 09:43:16;;;;;;;28.50;20.67;;;;;;;41.49;29.53;101031.78;5029397;28;20454;-72
2022/11/23 09:45:59;;;;;;;39.47;22.63;;;;;;;41.55;29.68;101018.78;5030962;28;20447;-73
2022/11/23 09:48:40;;;;;;;28.90;21.40;;;;;;;41.84;29.38;101018.81;5018850;28;20559;-73
2022/11/23 09:51:18;;;;;;;35.80;21.23;;;;;;;41.50;29.78;101013.53;5037317;28;20453;-73
2022/11/23 09:53:50;;;;;;;33.67;19.90;;;;;;;41.78;29.51;101017.41;5030587;28;20452;-74
2022/11/23 09:56:34;;;;;;;29.97;21.83;;;;;;;41.88;29.36;101015.44;5030042;28;20976;-73
2022/11/23 09:59:10;;;;;;;43.37;22.63;;;;;;;41.99;29.36;101019.34;5031761;28;20904;-74
2022/11/23 10:01:36;;;;;;;31.07;21.40;;;;;;;42.05;29.09;101018.03;5028588;28;20443;-73
2022/11/23 10:04:03;;;;;;;32.73;22.63;;;;;;;42.24;29.37;101018.44;5033245;28;20450;-74
2022/11/23 10:06:36;;;;;;;37.17;21.63;;;;;;;42.33;29.11;101019.13;5030611;28;20250;-71
2022/11/23 10:09:15;;;;;;;33.03;20.63;;;;;;;42.02;29.20;101024.94;5032170;28;20562;-74
2022/11/23 10:11:48;;;;;;;38.13;22.73;;;;;;;41.85;29.32;101016.88;5030971;28;20490;-74
2022/11/23 10:14:42;;;;;;;27.47;19.53;;;;;;;41.80;30.11;101014.34;5032618;28;20816;-72
2022/11/23 10:17:29;;;;;;;33.47;19.97;;;;;;;42.05;29.38;101018.84;5030789;28;20436;-74
2022/11/23 10:20:14;;;;;;;33.50;20.57;;;;;;;42.32;29.50;101014.81;5031321;28;20437;-71
2022/11/23 10:23:12;;;;;;;41.83;23.17;;;;;;;42.61;29.51;101013.16;5032971;28;20444;-74
2022/11/23 10:25:51;;;;;;;28.30;18.60;;;;;;;42.82;29.03;101013.91;5041747;28;20523;-72
2022/11/23 10:28:20;;;;;;;28.13;18.17;;;;;;;42.97;29.23;101008.94;5013171;28;20979;-70
2022/11/23 10:31:17;;;;;;;27.70;20.77;;;;;;;42.95;29.16;101003.81;5017135;28;20534;-71
2022/11/23 10:33:43;;;;;;;56.23;21.67;;;;;;;42.98;28.99;101002.34;5020276;28;20931;-73
2022/11/23 10:36:12;;;;;;;75.23;28.00;;;;;;;43.10;29.19;100997.75;5025970;28;20439;-72
2022/11/23 10:38:38;;;;;;;33.33;24.03;;;;;;;43.01;28.67;100993.50;5032438;28;20169;-72
2022/11/23 10:41:06;;;;;;;29.53;21.13;;;;;;;43.02;28.72;100995.09;5028531;28;20943;-77
2022/11/23 10:43:47;;;;;;;22.93;16.57;;;;;;;42.72;30.73;100997.16;5026718;28;20498;-75
2022/11/23 10:46:30;;;;;;;26.93;14.83;;;;;;;43.02;30.48;100995.09;5027777;28;20432;-77
2022/11/23 10:49:18;;;;;;;17.23;12.90;;;;;;;43.00;30.39;101000.09;5029522;28;20517;-76
2022/11/23 10:51:58;;;;;;;16.60;10.30;;;;;;;43.07;30.61;101003.06;5006844;28;20515;-74
2022/11/23 10:54:28;;;;;;;21.40;11.17;;;;;;;43.10;30.51;101005.94;5030837;28;20488;-74
2022/11/23 10:56:56;;;;;;;20.23;13.13;;;;;;;43.21;30.29;101003.53;4999367;28;20444;-74
2022/11/23 10:59:35;;;;;;;16.03;9.20;;;;;;;43.17;30.64;101003.44;5016580;28;20499;-73
2022/11/23 11:02:15;;;;;;;14.43;10.37;;;;;;;43.11;30.77;100991.13;5027448;28;20497;-73
2022/11/23 11:04:42;;;;;;;18.90;11.20;;;;;;;43.23;30.68;100976.72;5032615;28;20793;-75
2022/11/23 11:07:29;;;;;;;22.73;11.33;;;;;;;43.22;30.88;100977.84;5017080;28;20460;-75
2022/11/23 11:10:00;;;;;;;15.80;11.77;;;;;;;43.25;30.70;100987.28;5003370;28;20443;-75
2022/11/23 11:12:28;;;;;;;16.73;11.90;;;;;;;43.28;30.47;100983.84;5004184;28;20507;-74
2022/11/23 11:14:55;;;;;;;19.03;11.77;;;;;;;43.29;29.91;100982.75;5004849;28;20478;-73